sensor_id;sensor_type;location;lat;lon;timestamp;P1;durP1;ratioP1;P2;durP2;ratioP2
62861;SDS011;48953;53.110;5.592;2022-08-21T00:01:51;12.48;;;5.78;;
62861;SDS011;48953;53.110;5.592;2022-08-21T00:04:17;12.70;;;5.85;;
62861;SDS011;48953;53.110;5.592;2022-08-21T00:06:42;11.93;;;5.30;;
62861;SDS011;48953;53.110;5.592;2022-08-21T00:09:09;14.75;;;6.28;;
62861;SDS011;48953;53.110;5.592;2022-08-21T00:11:35;13.30;;;5.80;;
62861;SDS011;48953;53.110;5.592;2022-08-21T00:14:03;10.50;;;5.30;;
62861;SDS011;48953;53.110;5.592;2022-08-21T00:16:30;13.00;;;5.50;;
62861;SDS011;48953;53.110;5.592;2022-08-21T00:18:56;12.35;;;5.35;;
62861;SDS011;48953;53.110;5.592;2022-08-21T00:21:22;9.10;;;5.40;;
62861;SDS011;48953;53.110;5.592;2022-08-21T00:23:47;13.13;;;5.47;;
62861;SDS011;48953;53.110;5.592;2022-08-21T00:26:13;10.98;;;5.15;;
62861;SDS011;48953;53.110;5.592;2022-08-21T00:28:38;13.82;;;5.78;;
62861;SDS011;48953;53.110;5.592;2022-08-21T00:31:04;9.80;;;5.55;;
62861;SDS011;48953;53.110;5.592;2022-08-21T00:33:30;9.60;;;4.90;;
62861;SDS011;48953;53.110;5.592;2022-08-21T00:35:56;14.13;;;5.35;;
62861;SDS011;48953;53.110;5.592;2022-08-21T00:38:22;11.55;;;5.63;;
62861;SDS011;48953;53.110;5.592;2022-08-21T00:40:52;8.95;;;5.07;;
62861;SDS011;48953;53.110;5.592;2022-08-21T00:43:22;8.57;;;5.35;;
62861;SDS011;48953;53.110;5.592;2022-08-21T00:45:50;12.70;;;5.60;;
62861;SDS011;48953;53.110;5.592;2022-08-21T00:48:18;11.50;;;4.82;;
62861;SDS011;48953;53.110;5.592;2022-08-21T00:50:45;11.10;;;5.53;;
62861;SDS011;48953;53.110;5.592;2022-08-21T00:53:15;12.55;;;6.03;;
62861;SDS011;48953;53.110;5.592;2022-08-21T00:55:41;10.13;;;5.85;;
62861;SDS011;48953;53.110;5.592;2022-08-21T00:58:07;13.98;;;5.85;;
62861;SDS011;48953;53.110;5.592;2022-08-21T01:00:37;10.80;;;5.40;;
62861;SDS011;48953;53.110;5.592;2022-08-21T01:03:09;14.23;;;7.47;;
62861;SDS011;48953;53.110;5.592;2022-08-21T01:05:39;14.65;;;6.13;;
62861;SDS011;48953;53.110;5.592;2022-08-21T01:08:06;10.57;;;5.50;;
62861;SDS011;48953;53.110;5.592;2022-08-21T01:10:33;13.27;;;6.57;;
62861;SDS011;48953;53.110;5.592;2022-08-21T01:13:00;10.00;;;5.45;;
62861;SDS011;48953;53.110;5.592;2022-08-21T01:15:28;11.88;;;5.60;;
62861;SDS011;48953;53.110;5.592;2022-08-21T01:17:57;11.93;;;5.88;;
62861;SDS011;48953;53.110;5.592;2022-08-21T01:20:23;14.70;;;6.25;;
62861;SDS011;48953;53.110;5.592;2022-08-21T01:22:49;13.60;;;5.07;;
62861;SDS011;48953;53.110;5.592;2022-08-21T01:25:15;14.38;;;5.15;;
62861;SDS011;48953;53.110;5.592;2022-08-21T01:27:42;14.63;;;5.28;;
62861;SDS011;48953;53.110;5.592;2022-08-21T01:30:27;12.52;;;5.47;;
62861;SDS011;48953;53.110;5.592;2022-08-21T01:32:53;9.60;;;5.57;;
62861;SDS011;48953;53.110;5.592;2022-08-21T01:35:20;10.65;;;5.40;;
62861;SDS011;48953;53.110;5.592;2022-08-21T01:37:47;13.48;;;5.35;;
62861;SDS011;48953;53.110;5.592;2022-08-21T01:40:14;10.13;;;4.80;;
62861;SDS011;48953;53.110;5.592;2022-08-21T01:42:42;12.85;;;5.22;;
62861;SDS011;48953;53.110;5.592;2022-08-21T01:45:09;9.98;;;5.40;;
62861;SDS011;48953;53.110;5.592;2022-08-21T01:47:35;11.15;;;5.20;;
62861;SDS011;48953;53.110;5.592;2022-08-21T01:50:02;9.95;;;5.10;;
62861;SDS011;48953;53.110;5.592;2022-08-21T01:52:30;9.93;;;5.07;;
62861;SDS011;48953;53.110;5.592;2022-08-21T01:54:56;9.50;;;4.97;;
62861;SDS011;48953;53.110;5.592;2022-08-21T01:57:22;12.93;;;4.75;;
62861;SDS011;48953;53.110;5.592;2022-08-21T01:59:48;9.32;;;5.13;;
62861;SDS011;48953;53.110;5.592;2022-08-21T02:02:14;10.75;;;4.32;;
62861;SDS011;48953;53.110;5.592;2022-08-21T02:04:39;9.65;;;4.15;;
62861;SDS011;48953;53.110;5.592;2022-08-21T02:07:05;13.18;;;5.13;;
62861;SDS011;48953;53.110;5.592;2022-08-21T02:09:31;13.50;;;5.60;;
62861;SDS011;48953;53.110;5.592;2022-08-21T02:11:57;14.82;;;4.75;;
62861;SDS011;48953;53.110;5.592;2022-08-21T02:14:23;14.90;;;5.28;;
62861;SDS011;48953;53.110;5.592;2022-08-21T02:16:48;10.82;;;5.40;;
62861;SDS011;48953;53.110;5.592;2022-08-21T02:19:15;14.63;;;5.45;;
62861;SDS011;48953;53.110;5.592;2022-08-21T02:21:41;12.15;;;5.35;;
62861;SDS011;48953;53.110;5.592;2022-08-21T02:24:07;14.07;;;5.50;;
62861;SDS011;48953;53.110;5.592;2022-08-21T02:26:34;9.20;;;5.00;;
62861;SDS011;48953;53.110;5.592;2022-08-21T02:29:00;12.05;;;5.07;;
62861;SDS011;48953;53.110;5.592;2022-08-21T02:31:26;13.00;;;5.53;;
62861;SDS011;48953;53.110;5.592;2022-08-21T02:33:52;11.15;;;6.22;;
62861;SDS011;48953;53.110;5.592;2022-08-21T02:36:17;9.15;;;5.68;;
62861;SDS011;48953;53.110;5.592;2022-08-21T02:38:43;10.85;;;5.60;;
62861;SDS011;48953;53.110;5.592;2022-08-21T02:41:14;12.95;;;6.05;;
62861;SDS011;48953;53.110;5.592;2022-08-21T02:43:41;13.65;;;5.45;;
62861;SDS011;48953;53.110;5.592;2022-08-21T02:46:08;9.93;;;5.18;;
62861;SDS011;48953;53.110;5.592;2022-08-21T02:48:35;13.95;;;6.22;;
62861;SDS011;48953;53.110;5.592;2022-08-21T02:51:19;13.90;;;6.60;;
62861;SDS011;48953;53.110;5.592;2022-08-21T02:53:46;13.80;;;6.85;;
62861;SDS011;48953;53.110;5.592;2022-08-21T02:56:13;15.35;;;7.57;;
62861;SDS011;48953;53.110;5.592;2022-08-21T02:58:41;10.10;;;6.72;;
62861;SDS011;48953;53.110;5.592;2022-08-21T03:01:09;13.55;;;7.25;;
62861;SDS011;48953;53.110;5.592;2022-08-21T03:03:37;14.57;;;6.72;;
62861;SDS011;48953;53.110;5.592;2022-08-21T03:06:04;14.70;;;7.07;;
62861;SDS011;48953;53.110;5.592;2022-08-21T03:08:31;12.43;;;5.68;;
62861;SDS011;48953;53.110;5.592;2022-08-21T03:10:57;11.25;;;5.93;;
62861;SDS011;48953;53.110;5.592;2022-08-21T03:13:24;13.20;;;6.13;;
62861;SDS011;48953;53.110;5.592;2022-08-21T03:15:50;12.15;;;6.22;;
62861;SDS011;48953;53.110;5.592;2022-08-21T03:18:16;15.57;;;6.30;;
62861;SDS011;48953;53.110;5.592;2022-08-21T03:20:42;11.68;;;6.13;;
62861;SDS011;48953;53.110;5.592;2022-08-21T03:23:10;10.68;;;6.15;;
62861;SDS011;48953;53.110;5.592;2022-08-21T03:25:36;12.10;;;6.50;;
62861;SDS011;48953;53.110;5.592;2022-08-21T03:28:03;11.80;;;6.20;;
62861;SDS011;48953;53.110;5.592;2022-08-21T03:30:30;8.55;;;5.57;;
62861;SDS011;48953;53.110;5.592;2022-08-21T03:32:56;14.32;;;6.32;;
62861;SDS011;48953;53.110;5.592;2022-08-21T03:35:27;12.85;;;5.78;;
62861;SDS011;48953;53.110;5.592;2022-08-21T03:37:53;14.75;;;6.15;;
62861;SDS011;48953;53.110;5.592;2022-08-21T03:40:19;12.48;;;6.20;;
62861;SDS011;48953;53.110;5.592;2022-08-21T03:42:46;12.25;;;5.82;;
62861;SDS011;48953;53.110;5.592;2022-08-21T03:45:12;13.45;;;6.00;;
62861;SDS011;48953;53.110;5.592;2022-08-21T03:47:49;15.43;;;6.85;;
62861;SDS011;48953;53.110;5.592;2022-08-21T03:50:16;13.73;;;6.72;;
62861;SDS011;48953;53.110;5.592;2022-08-21T03:52:42;12.95;;;6.25;;
62861;SDS011;48953;53.110;5.592;2022-08-21T03:55:08;13.30;;;5.93;;
62861;SDS011;48953;53.110;5.592;2022-08-21T03:57:33;14.73;;;6.82;;
62861;SDS011;48953;53.110;5.592;2022-08-21T03:59:59;19.50;;;6.40;;
62861;SDS011;48953;53.110;5.592;2022-08-21T04:02:24;15.52;;;5.85;;
62861;SDS011;48953;53.110;5.592;2022-08-21T04:04:50;18.85;;;7.13;;
62861;SDS011;48953;53.110;5.592;2022-08-21T04:07:16;15.73;;;6.40;;
62861;SDS011;48953;53.110;5.592;2022-08-21T04:09:42;13.55;;;6.82;;
62861;SDS011;48953;53.110;5.592;2022-08-21T04:12:09;17.38;;;6.95;;
62861;SDS011;48953;53.110;5.592;2022-08-21T04:14:34;11.60;;;6.22;;
62861;SDS011;48953;53.110;5.592;2022-08-21T04:17:00;17.20;;;6.68;;
62861;SDS011;48953;53.110;5.592;2022-08-21T04:19:26;14.00;;;6.75;;
62861;SDS011;48953;53.110;5.592;2022-08-21T04:21:51;12.73;;;6.72;;
62861;SDS011;48953;53.110;5.592;2022-08-21T04:24:17;14.07;;;7.53;;
62861;SDS011;48953;53.110;5.592;2022-08-21T04:26:44;16.80;;;7.30;;
62861;SDS011;48953;53.110;5.592;2022-08-21T04:29:09;15.70;;;7.38;;
62861;SDS011;48953;53.110;5.592;2022-08-21T04:31:36;15.93;;;7.47;;
62861;SDS011;48953;53.110;5.592;2022-08-21T04:34:02;15.30;;;7.18;;
62861;SDS011;48953;53.110;5.592;2022-08-21T04:36:29;14.00;;;7.63;;
62861;SDS011;48953;53.110;5.592;2022-08-21T04:38:56;13.43;;;6.38;;
62861;SDS011;48953;53.110;5.592;2022-08-21T04:41:21;15.15;;;6.40;;
62861;SDS011;48953;53.110;5.592;2022-08-21T04:43:47;14.43;;;6.07;;
62861;SDS011;48953;53.110;5.592;2022-08-21T04:46:12;15.25;;;6.57;;
62861;SDS011;48953;53.110;5.592;2022-08-21T04:48:38;12.48;;;6.20;;
62861;SDS011;48953;53.110;5.592;2022-08-21T04:51:15;15.30;;;6.35;;
62861;SDS011;48953;53.110;5.592;2022-08-21T04:53:45;14.68;;;6.30;;
62861;SDS011;48953;53.110;5.592;2022-08-21T04:58:52;15.15;;;5.78;;
62861;SDS011;48953;53.110;5.592;2022-08-21T05:01:21;14.15;;;5.70;;
62861;SDS011;48953;53.110;5.592;2022-08-21T05:03:50;13.40;;;5.90;;
62861;SDS011;48953;53.110;5.592;2022-08-21T05:06:20;11.00;;;5.43;;
62861;SDS011;48953;53.110;5.592;2022-08-21T05:08:46;10.70;;;6.13;;
62861;SDS011;48953;53.110;5.592;2022-08-21T05:11:13;13.10;;;6.03;;
62861;SDS011;48953;53.110;5.592;2022-08-21T05:13:39;17.48;;;6.18;;
62861;SDS011;48953;53.110;5.592;2022-08-21T05:16:06;13.68;;;5.95;;
62861;SDS011;48953;53.110;5.592;2022-08-21T05:18:32;12.18;;;5.53;;
62861;SDS011;48953;53.110;5.592;2022-08-21T05:20:57;11.52;;;5.55;;
62861;SDS011;48953;53.110;5.592;2022-08-21T05:23:23;14.63;;;5.22;;
62861;SDS011;48953;53.110;5.592;2022-08-21T05:25:50;16.23;;;5.88;;
62861;SDS011;48953;53.110;5.592;2022-08-21T05:28:16;15.95;;;5.65;;
62861;SDS011;48953;53.110;5.592;2022-08-21T05:30:42;16.02;;;5.57;;
62861;SDS011;48953;53.110;5.592;2022-08-21T05:33:08;12.13;;;5.13;;
62861;SDS011;48953;53.110;5.592;2022-08-21T05:35:34;17.73;;;5.13;;
62861;SDS011;48953;53.110;5.592;2022-08-21T05:37:59;13.20;;;4.75;;
62861;SDS011;48953;53.110;5.592;2022-08-21T05:40:26;15.35;;;5.10;;
62861;SDS011;48953;53.110;5.592;2022-08-21T05:42:52;12.15;;;4.45;;
62861;SDS011;48953;53.110;5.592;2022-08-21T05:45:18;16.13;;;4.47;;
62861;SDS011;48953;53.110;5.592;2022-08-21T05:47:44;10.65;;;3.92;;
62861;SDS011;48953;53.110;5.592;2022-08-21T05:50:10;9.73;;;2.95;;
62861;SDS011;48953;53.110;5.592;2022-08-21T05:52:35;8.00;;;3.30;;
62861;SDS011;48953;53.110;5.592;2022-08-21T05:55:01;8.95;;;2.60;;
62861;SDS011;48953;53.110;5.592;2022-08-21T05:57:27;10.18;;;2.80;;
62861;SDS011;48953;53.110;5.592;2022-08-21T05:59:52;9.80;;;3.17;;
62861;SDS011;48953;53.110;5.592;2022-08-21T06:02:18;7.35;;;2.72;;
62861;SDS011;48953;53.110;5.592;2022-08-21T06:04:44;10.40;;;2.72;;
62861;SDS011;48953;53.110;5.592;2022-08-21T06:07:10;7.03;;;3.17;;
62861;SDS011;48953;53.110;5.592;2022-08-21T06:09:36;10.10;;;2.90;;
62861;SDS011;48953;53.110;5.592;2022-08-21T06:12:07;10.05;;;3.08;;
62861;SDS011;48953;53.110;5.592;2022-08-21T06:14:34;10.50;;;2.53;;
62861;SDS011;48953;53.110;5.592;2022-08-21T06:17:04;9.70;;;2.95;;
62861;SDS011;48953;53.110;5.592;2022-08-21T06:19:31;9.55;;;2.85;;
62861;SDS011;48953;53.110;5.592;2022-08-21T06:21:57;11.73;;;2.75;;
62861;SDS011;48953;53.110;5.592;2022-08-21T06:24:23;8.05;;;2.53;;
62861;SDS011;48953;53.110;5.592;2022-08-21T06:26:48;12.68;;;2.85;;
62861;SDS011;48953;53.110;5.592;2022-08-21T06:29:14;11.20;;;2.85;;
62861;SDS011;48953;53.110;5.592;2022-08-21T06:31:42;11.20;;;2.83;;
62861;SDS011;48953;53.110;5.592;2022-08-21T06:34:08;11.23;;;3.10;;
62861;SDS011;48953;53.110;5.592;2022-08-21T06:36:34;8.27;;;3.17;;
62861;SDS011;48953;53.110;5.592;2022-08-21T06:39:00;10.23;;;2.80;;
62861;SDS011;48953;53.110;5.592;2022-08-21T06:41:26;9.57;;;2.97;;
62861;SDS011;48953;53.110;5.592;2022-08-21T06:43:52;7.68;;;2.80;;
62861;SDS011;48953;53.110;5.592;2022-08-21T06:46:18;9.65;;;2.40;;
62861;SDS011;48953;53.110;5.592;2022-08-21T06:48:44;7.32;;;2.38;;
62861;SDS011;48953;53.110;5.592;2022-08-21T06:51:09;8.45;;;2.50;;
62861;SDS011;48953;53.110;5.592;2022-08-21T06:53:35;10.68;;;2.75;;
62861;SDS011;48953;53.110;5.592;2022-08-21T06:56:01;9.27;;;2.88;;
62861;SDS011;48953;53.110;5.592;2022-08-21T06:58:26;6.25;;;2.00;;
62861;SDS011;48953;53.110;5.592;2022-08-21T07:00:52;4.82;;;2.10;;
62861;SDS011;48953;53.110;5.592;2022-08-21T07:05:46;6.68;;;2.13;;
62861;SDS011;48953;53.110;5.592;2022-08-21T07:08:11;11.13;;;2.17;;
62861;SDS011;48953;53.110;5.592;2022-08-21T07:10:37;6.03;;;2.00;;
62861;SDS011;48953;53.110;5.592;2022-08-21T07:13:02;5.90;;;2.10;;
62861;SDS011;48953;53.110;5.592;2022-08-21T07:15:28;7.28;;;2.42;;
62861;SDS011;48953;53.110;5.592;2022-08-21T07:17:54;7.72;;;2.40;;
62861;SDS011;48953;53.110;5.592;2022-08-21T07:20:22;6.75;;;2.20;;
62861;SDS011;48953;53.110;5.592;2022-08-21T07:22:47;7.57;;;2.25;;
62861;SDS011;48953;53.110;5.592;2022-08-21T07:25:13;6.80;;;2.10;;
62861;SDS011;48953;53.110;5.592;2022-08-21T07:27:38;6.00;;;2.10;;
62861;SDS011;48953;53.110;5.592;2022-08-21T07:30:04;5.18;;;1.95;;
62861;SDS011;48953;53.110;5.592;2022-08-21T07:32:30;7.65;;;2.38;;
62861;SDS011;48953;53.110;5.592;2022-08-21T07:34:56;9.80;;;2.47;;
62861;SDS011;48953;53.110;5.592;2022-08-21T07:37:22;5.28;;;2.00;;
62861;SDS011;48953;53.110;5.592;2022-08-21T07:39:47;4.95;;;2.40;;
62861;SDS011;48953;53.110;5.592;2022-08-21T07:42:14;7.30;;;2.50;;
62861;SDS011;48953;53.110;5.592;2022-08-21T07:44:40;7.68;;;2.50;;
62861;SDS011;48953;53.110;5.592;2022-08-21T07:47:05;6.85;;;2.35;;
62861;SDS011;48953;53.110;5.592;2022-08-21T07:49:31;6.10;;;2.33;;
62861;SDS011;48953;53.110;5.592;2022-08-21T07:51:57;5.80;;;2.35;;
62861;SDS011;48953;53.110;5.592;2022-08-21T07:54:22;5.18;;;1.95;;
62861;SDS011;48953;53.110;5.592;2022-08-21T07:56:48;7.18;;;2.30;;
62861;SDS011;48953;53.110;5.592;2022-08-21T07:59:13;7.63;;;2.28;;
62861;SDS011;48953;53.110;5.592;2022-08-21T08:01:39;9.88;;;2.60;;
62861;SDS011;48953;53.110;5.592;2022-08-21T08:04:05;4.90;;;2.05;;
62861;SDS011;48953;53.110;5.592;2022-08-21T08:06:31;6.20;;;2.10;;
62861;SDS011;48953;53.110;5.592;2022-08-21T08:08:56;6.43;;;2.45;;
62861;SDS011;48953;53.110;5.592;2022-08-21T08:11:22;7.03;;;2.40;;
62861;SDS011;48953;53.110;5.592;2022-08-21T08:13:49;6.40;;;2.38;;
62861;SDS011;48953;53.110;5.592;2022-08-21T08:16:16;7.15;;;2.05;;
62861;SDS011;48953;53.110;5.592;2022-08-21T08:18:43;9.23;;;2.47;;
62861;SDS011;48953;53.110;5.592;2022-08-21T08:21:09;6.35;;;2.10;;
62861;SDS011;48953;53.110;5.592;2022-08-21T08:23:36;7.38;;;2.50;;
62861;SDS011;48953;53.110;5.592;2022-08-21T08:26:02;7.00;;;2.10;;
62861;SDS011;48953;53.110;5.592;2022-08-21T08:28:28;7.57;;;2.35;;
62861;SDS011;48953;53.110;5.592;2022-08-21T08:30:54;8.13;;;2.15;;
62861;SDS011;48953;53.110;5.592;2022-08-21T08:33:20;6.85;;;2.25;;
62861;SDS011;48953;53.110;5.592;2022-08-21T08:35:47;7.75;;;2.45;;
62861;SDS011;48953;53.110;5.592;2022-08-21T08:38:14;8.63;;;2.60;;
62861;SDS011;48953;53.110;5.592;2022-08-21T08:40:55;8.75;;;2.50;;
62861;SDS011;48953;53.110;5.592;2022-08-21T08:43:28;7.65;;;2.17;;
62861;SDS011;48953;53.110;5.592;2022-08-21T08:45:55;8.23;;;2.87;;
62861;SDS011;48953;53.110;5.592;2022-08-21T08:54:21;5.93;;;2.30;;
62861;SDS011;48953;53.110;5.592;2022-08-21T08:56:56;6.40;;;2.10;;
62861;SDS011;48953;53.110;5.592;2022-08-21T08:59:30;7.50;;;2.20;;
62861;SDS011;48953;53.110;5.592;2022-08-21T09:02:17;5.18;;;1.75;;
62861;SDS011;48953;53.110;5.592;2022-08-21T09:04:44;5.90;;;1.85;;
62861;SDS011;48953;53.110;5.592;2022-08-21T09:07:16;5.70;;;1.77;;
62861;SDS011;48953;53.110;5.592;2022-08-21T09:15:36;3.55;;;1.63;;
62861;SDS011;48953;53.110;5.592;2022-08-21T09:18:35;7.13;;;2.45;;
62861;SDS011;48953;53.110;5.592;2022-08-21T09:21:27;5.97;;;2.00;;
62861;SDS011;48953;53.110;5.592;2022-08-21T09:29:39;5.90;;;2.08;;
62861;SDS011;48953;53.110;5.592;2022-08-21T09:32:20;4.50;;;1.52;;
62861;SDS011;48953;53.110;5.592;2022-08-21T09:34:56;4.38;;;1.65;;
62861;SDS011;48953;53.110;5.592;2022-08-21T09:37:30;4.13;;;2.00;;
62861;SDS011;48953;53.110;5.592;2022-08-21T09:39:58;3.33;;;1.75;;
62861;SDS011;48953;53.110;5.592;2022-08-21T09:42:25;3.67;;;1.40;;
62861;SDS011;48953;53.110;5.592;2022-08-21T09:45:07;3.97;;;1.52;;
62861;SDS011;48953;53.110;5.592;2022-08-21T09:47:40;3.72;;;1.50;;
62861;SDS011;48953;53.110;5.592;2022-08-21T09:50:13;4.20;;;1.30;;
62861;SDS011;48953;53.110;5.592;2022-08-21T09:52:43;2.25;;;1.08;;
62861;SDS011;48953;53.110;5.592;2022-08-21T09:55:21;2.35;;;1.17;;
62861;SDS011;48953;53.110;5.592;2022-08-21T09:58:15;4.35;;;1.20;;
62861;SDS011;48953;53.110;5.592;2022-08-21T10:00:41;3.88;;;1.27;;
62861;SDS011;48953;53.110;5.592;2022-08-21T10:03:18;2.53;;;1.30;;
62861;SDS011;48953;53.110;5.592;2022-08-21T10:05:53;2.33;;;1.33;;
62861;SDS011;48953;53.110;5.592;2022-08-21T10:08:24;3.95;;;1.13;;
62861;SDS011;48953;53.110;5.592;2022-08-21T10:10:54;4.55;;;1.60;;
62861;SDS011;48953;53.110;5.592;2022-08-21T10:22:19;3.50;;;1.10;;
62861;SDS011;48953;53.110;5.592;2022-08-21T10:27:58;5.38;;;1.65;;
62861;SDS011;48953;53.110;5.592;2022-08-21T10:30:30;4.05;;;1.40;;
62861;SDS011;48953;53.110;5.592;2022-08-21T10:33:07;5.03;;;1.50;;
62861;SDS011;48953;53.110;5.592;2022-08-21T10:35:50;5.30;;;1.42;;
62861;SDS011;48953;53.110;5.592;2022-08-21T10:47:04;3.72;;;1.45;;
62861;SDS011;48953;53.110;5.592;2022-08-21T10:50:50;3.25;;;1.50;;
62861;SDS011;48953;53.110;5.592;2022-08-21T10:53:07;3.83;;;1.55;;
62861;SDS011;48953;53.110;5.592;2022-08-21T10:58:24;3.45;;;1.13;;
62861;SDS011;48953;53.110;5.592;2022-08-21T11:01:08;3.53;;;1.48;;
62861;SDS011;48953;53.110;5.592;2022-08-21T11:03:43;4.05;;;1.45;;
62861;SDS011;48953;53.110;5.592;2022-08-21T11:06:12;3.83;;;1.45;;
62861;SDS011;48953;53.110;5.592;2022-08-21T11:08:49;2.38;;;1.05;;
62861;SDS011;48953;53.110;5.592;2022-08-21T11:11:32;4.88;;;1.40;;
62861;SDS011;48953;53.110;5.592;2022-08-21T11:14:49;4.97;;;1.70;;
62861;SDS011;48953;53.110;5.592;2022-08-21T11:17:02;4.03;;;1.40;;
62861;SDS011;48953;53.110;5.592;2022-08-21T11:22:13;5.97;;;1.58;;
62861;SDS011;48953;53.110;5.592;2022-08-21T11:27:26;3.30;;;1.50;;
62861;SDS011;48953;53.110;5.592;2022-08-21T11:30:01;5.68;;;1.50;;
62861;SDS011;48953;53.110;5.592;2022-08-21T11:32:31;6.88;;;1.65;;
62861;SDS011;48953;53.110;5.592;2022-08-21T11:43:21;4.18;;;1.42;;
62861;SDS011;48953;53.110;5.592;2022-08-21T11:45:55;5.45;;;1.58;;
62861;SDS011;48953;53.110;5.592;2022-08-21T11:51:11;5.82;;;1.45;;
62861;SDS011;48953;53.110;5.592;2022-08-21T11:53:44;3.70;;;1.27;;
62861;SDS011;48953;53.110;5.592;2022-08-21T11:56:17;4.25;;;1.38;;
62861;SDS011;48953;53.110;5.592;2022-08-21T11:58:50;4.50;;;1.42;;
62861;SDS011;48953;53.110;5.592;2022-08-21T12:01:24;4.20;;;1.30;;
62861;SDS011;48953;53.110;5.592;2022-08-21T12:04:03;5.35;;;1.50;;
62861;SDS011;48953;53.110;5.592;2022-08-21T12:06:34;5.25;;;1.98;;
62861;SDS011;48953;53.110;5.592;2022-08-21T12:09:28;4.70;;;1.67;;
62861;SDS011;48953;53.110;5.592;2022-08-21T12:12:00;4.95;;;1.60;;
62861;SDS011;48953;53.110;5.592;2022-08-21T12:14:39;5.03;;;1.67;;
62861;SDS011;48953;53.110;5.592;2022-08-21T12:17:20;3.05;;;1.40;;
62861;SDS011;48953;53.110;5.592;2022-08-21T12:19:58;5.13;;;1.50;;
62861;SDS011;48953;53.110;5.592;2022-08-21T12:22:38;4.07;;;1.30;;
62861;SDS011;48953;53.110;5.592;2022-08-21T12:25:07;4.82;;;1.55;;
62861;SDS011;48953;53.110;5.592;2022-08-21T12:27:49;4.18;;;1.33;;
62861;SDS011;48953;53.110;5.592;2022-08-21T12:32:58;6.18;;;1.50;;
62861;SDS011;48953;53.110;5.592;2022-08-21T12:35:40;5.25;;;1.50;;
62861;SDS011;48953;53.110;5.592;2022-08-21T12:38:26;5.68;;;1.60;;
62861;SDS011;48953;53.110;5.592;2022-08-21T12:41:04;6.60;;;1.77;;
62861;SDS011;48953;53.110;5.592;2022-08-21T12:43:35;3.47;;;1.35;;
62861;SDS011;48953;53.110;5.592;2022-08-21T12:46:05;5.72;;;1.50;;
62861;SDS011;48953;53.110;5.592;2022-08-21T12:51:33;5.25;;;1.88;;
62861;SDS011;48953;53.110;5.592;2022-08-21T12:54:21;2.83;;;1.23;;
62861;SDS011;48953;53.110;5.592;2022-08-21T12:56:55;4.00;;;1.30;;
62861;SDS011;48953;53.110;5.592;2022-08-21T12:59:26;4.93;;;1.20;;
62861;SDS011;48953;53.110;5.592;2022-08-21T13:01:52;6.32;;;1.40;;
62861;SDS011;48953;53.110;5.592;2022-08-21T13:04:25;5.70;;;1.75;;
62861;SDS011;48953;53.110;5.592;2022-08-21T13:07:05;2.70;;;1.17;;
62861;SDS011;48953;53.110;5.592;2022-08-21T13:09:36;4.40;;;1.42;;
62861;SDS011;48953;53.110;5.592;2022-08-21T13:12:09;6.32;;;1.60;;
62861;SDS011;48953;53.110;5.592;2022-08-21T13:14:36;3.40;;;1.23;;
62861;SDS011;48953;53.110;5.592;2022-08-21T13:17:05;4.53;;;1.40;;
62861;SDS011;48953;53.110;5.592;2022-08-21T13:19:32;4.18;;;1.38;;
62861;SDS011;48953;53.110;5.592;2022-08-21T13:21:59;5.72;;;1.75;;
62861;SDS011;48953;53.110;5.592;2022-08-21T13:24:26;6.72;;;1.27;;
62861;SDS011;48953;53.110;5.592;2022-08-21T13:29:22;5.43;;;1.30;;
62861;SDS011;48953;53.110;5.592;2022-08-21T13:31:53;7.43;;;1.67;;
62861;SDS011;48953;53.110;5.592;2022-08-21T13:34:22;5.70;;;1.40;;
62861;SDS011;48953;53.110;5.592;2022-08-21T13:36:51;6.00;;;1.48;;
62861;SDS011;48953;53.110;5.592;2022-08-21T13:39:20;6.53;;;1.40;;
62861;SDS011;48953;53.110;5.592;2022-08-21T13:41:48;6.63;;;1.42;;
62861;SDS011;48953;53.110;5.592;2022-08-21T13:44:19;4.93;;;1.83;;
62861;SDS011;48953;53.110;5.592;2022-08-21T13:46:51;2.88;;;0.98;;
62861;SDS011;48953;53.110;5.592;2022-08-21T13:49:19;6.00;;;1.67;;
62861;SDS011;48953;53.110;5.592;2022-08-21T13:51:51;5.35;;;1.30;;
62861;SDS011;48953;53.110;5.592;2022-08-21T13:54:51;4.78;;;1.33;;
62861;SDS011;48953;53.110;5.592;2022-08-21T13:57:19;7.15;;;1.50;;
62861;SDS011;48953;53.110;5.592;2022-08-21T14:02:20;6.13;;;1.55;;
62861;SDS011;48953;53.110;5.592;2022-08-21T14:04:55;4.82;;;1.23;;
62861;SDS011;48953;53.110;5.592;2022-08-21T14:07:34;5.10;;;1.50;;
62861;SDS011;48953;53.110;5.592;2022-08-21T14:10:04;6.90;;;1.60;;
62861;SDS011;48953;53.110;5.592;2022-08-21T14:12:38;8.98;;;1.60;;
62861;SDS011;48953;53.110;5.592;2022-08-21T14:15:08;4.32;;;1.40;;
62861;SDS011;48953;53.110;5.592;2022-08-21T14:17:38;5.20;;;1.40;;
62861;SDS011;48953;53.110;5.592;2022-08-21T14:20:07;8.45;;;1.50;;
62861;SDS011;48953;53.110;5.592;2022-08-21T14:22:39;9.43;;;1.90;;
62861;SDS011;48953;53.110;5.592;2022-08-21T14:27:41;4.53;;;1.30;;
62861;SDS011;48953;53.110;5.592;2022-08-21T14:30:19;7.78;;;1.60;;
62861;SDS011;48953;53.110;5.592;2022-08-21T14:32:46;7.85;;;1.50;;
62861;SDS011;48953;53.110;5.592;2022-08-21T14:35:12;5.43;;;1.60;;
62861;SDS011;48953;53.110;5.592;2022-08-21T14:37:42;4.88;;;1.55;;
62861;SDS011;48953;53.110;5.592;2022-08-21T14:40:09;6.75;;;1.55;;
62861;SDS011;48953;53.110;5.592;2022-08-21T14:42:35;5.22;;;1.60;;
62861;SDS011;48953;53.110;5.592;2022-08-21T14:45:13;6.35;;;1.73;;
62861;SDS011;48953;53.110;5.592;2022-08-21T14:47:41;6.18;;;1.67;;
62861;SDS011;48953;53.110;5.592;2022-08-21T14:50:10;12.00;;;2.60;;
62861;SDS011;48953;53.110;5.592;2022-08-21T14:52:38;5.68;;;1.73;;
62861;SDS011;48953;53.110;5.592;2022-08-21T14:55:05;7.18;;;1.80;;
62861;SDS011;48953;53.110;5.592;2022-08-21T14:57:32;4.57;;;1.52;;
62861;SDS011;48953;53.110;5.592;2022-08-21T14:59:58;4.78;;;1.77;;
62861;SDS011;48953;53.110;5.592;2022-08-21T15:02:24;7.40;;;2.08;;
62861;SDS011;48953;53.110;5.592;2022-08-21T15:04:50;4.43;;;1.55;;
62861;SDS011;48953;53.110;5.592;2022-08-21T15:07:16;5.82;;;1.60;;
62861;SDS011;48953;53.110;5.592;2022-08-21T15:09:41;6.40;;;1.50;;
62861;SDS011;48953;53.110;5.592;2022-08-21T15:12:07;8.43;;;1.90;;
62861;SDS011;48953;53.110;5.592;2022-08-21T15:14:34;5.70;;;1.77;;
62861;SDS011;48953;53.110;5.592;2022-08-21T15:17:03;4.57;;;1.45;;
62861;SDS011;48953;53.110;5.592;2022-08-21T15:19:31;5.32;;;1.45;;
62861;SDS011;48953;53.110;5.592;2022-08-21T15:21:57;7.95;;;1.92;;
62861;SDS011;48953;53.110;5.592;2022-08-21T15:24:23;4.07;;;1.80;;
62861;SDS011;48953;53.110;5.592;2022-08-21T15:26:48;6.15;;;2.20;;
62861;SDS011;48953;53.110;5.592;2022-08-21T15:29:15;7.00;;;1.95;;
62861;SDS011;48953;53.110;5.592;2022-08-21T15:32:41;4.15;;;1.50;;
62861;SDS011;48953;53.110;5.592;2022-08-21T15:34:47;6.10;;;1.92;;
62861;SDS011;48953;53.110;5.592;2022-08-21T15:37:14;7.32;;;1.95;;
62861;SDS011;48953;53.110;5.592;2022-08-21T15:39:40;5.68;;;1.55;;
62861;SDS011;48953;53.110;5.592;2022-08-21T15:42:06;7.03;;;1.45;;
62861;SDS011;48953;53.110;5.592;2022-08-21T15:44:31;5.60;;;1.83;;
62861;SDS011;48953;53.110;5.592;2022-08-21T15:46:58;6.35;;;1.92;;
62861;SDS011;48953;53.110;5.592;2022-08-21T15:49:24;5.75;;;1.80;;
62861;SDS011;48953;53.110;5.592;2022-08-21T15:51:50;6.70;;;1.52;;
62861;SDS011;48953;53.110;5.592;2022-08-21T15:54:15;5.72;;;1.63;;
62861;SDS011;48953;53.110;5.592;2022-08-21T15:56:43;7.38;;;1.90;;
62861;SDS011;48953;53.110;5.592;2022-08-21T15:59:13;4.88;;;1.60;;
62861;SDS011;48953;53.110;5.592;2022-08-21T16:01:43;5.85;;;1.80;;
62861;SDS011;48953;53.110;5.592;2022-08-21T16:04:09;6.45;;;1.90;;
62861;SDS011;48953;53.110;5.592;2022-08-21T16:06:37;7.63;;;2.33;;
62861;SDS011;48953;53.110;5.592;2022-08-21T16:09:03;5.40;;;2.08;;
62861;SDS011;48953;53.110;5.592;2022-08-21T16:11:28;5.53;;;2.10;;